sensor_id;sensor_type;location;lat;lon;timestamp;temperature;humidity
18658;DHT22;9458;50.942;5.074;2023-08-31T00:02:20;13.30;99.90
18658;DHT22;9458;50.942;5.074;2023-08-31T00:04:59;13.30;99.90
18658;DHT22;9458;50.942;5.074;2023-08-31T00:07:38;13.30;99.90
18658;DHT22;9458;50.942;5.074;2023-08-31T00:10:07;13.30;99.90
18658;DHT22;9458;50.942;5.074;2023-08-31T00:12:47;13.30;99.90
18658;DHT22;9458;50.942;5.074;2023-08-31T00:15:15;13.30;99.90
18658;DHT22;9458;50.942;5.074;2023-08-31T00:17:44;13.30;99.90
18658;DHT22;9458;50.942;5.074;2023-08-31T00:20:11;13.20;99.90
18658;DHT22;9458;50.942;5.074;2023-08-31T00:22:45;13.10;99.90
18658;DHT22;9458;50.942;5.074;2023-08-31T00:25:22;13.10;99.90
18658;DHT22;9458;50.942;5.074;2023-08-31T00:27:50;13.10;99.90
18658;DHT22;9458;50.942;5.074;2023-08-31T00:30:20;13.10;99.90
18658;DHT22;9458;50.942;5.074;2023-08-31T00:32:54;13.10;99.90
18658;DHT22;9458;50.942;5.074;2023-08-31T00:35:27;13.20;99.90
18658;DHT22;9458;50.942;5.074;2023-08-31T00:37:59;13.20;99.90
18658;DHT22;9458;50.942;5.074;2023-08-31T00:40:27;13.00;99.90
18658;DHT22;9458;50.942;5.074;2023-08-31T00:42:58;13.00;99.90
18658;DHT22;9458;50.942;5.074;2023-08-31T00:45:27;13.10;99.90
18658;DHT22;9458;50.942;5.074;2023-08-31T00:47:54;13.00;99.90
18658;DHT22;9458;50.942;5.074;2023-08-31T00:50:23;13.00;99.90
18658;DHT22;9458;50.942;5.074;2023-08-31T00:52:50;13.00;99.90
18658;DHT22;9458;50.942;5.074;2023-08-31T00:55:20;13.00;99.90
18658;DHT22;9458;50.942;5.074;2023-08-31T00:57:48;13.00;99.90
18658;DHT22;9458;50.942;5.074;2023-08-31T01:00:16;12.90;99.90
18658;DHT22;9458;50.942;5.074;2023-08-31T01:02:47;13.00;99.90
18658;DHT22;9458;50.942;5.074;2023-08-31T01:05:22;13.00;99.90
18658;DHT22;9458;50.942;5.074;2023-08-31T01:07:56;12.90;99.90
18658;DHT22;9458;50.942;5.074;2023-08-31T01:10:28;13.00;99.90
18658;DHT22;9458;50.942;5.074;2023-08-31T01:12:58;13.00;99.90
18658;DHT22;9458;50.942;5.074;2023-08-31T01:15:28;12.90;99.90
18658;DHT22;9458;50.942;5.074;2023-08-31T01:17:57;12.90;99.90
18658;DHT22;9458;50.942;5.074;2023-08-31T01:20:31;12.80;99.90
18658;DHT22;9458;50.942;5.074;2023-08-31T01:23:00;12.90;99.90
18658;DHT22;9458;50.942;5.074;2023-08-31T01:25:30;12.90;99.90
18658;DHT22;9458;50.942;5.074;2023-08-31T01:27:58;12.90;99.90
18658;DHT22;9458;50.942;5.074;2023-08-31T01:30:29;12.90;99.90
18658;DHT22;9458;50.942;5.074;2023-08-31T01:32:56;12.80;99.90
18658;DHT22;9458;50.942;5.074;2023-08-31T01:35:26;12.80;99.90
18658;DHT22;9458;50.942;5.074;2023-08-31T01:37:58;12.80;99.90
18658;DHT22;9458;50.942;5.074;2023-08-31T01:40:31;12.90;99.90
18658;DHT22;9458;50.942;5.074;2023-08-31T01:43:01;12.90;99.90
18658;DHT22;9458;50.942;5.074;2023-08-31T01:45:30;12.80;99.90
18658;DHT22;9458;50.942;5.074;2023-08-31T01:48:01;12.80;99.90
18658;DHT22;9458;50.942;5.074;2023-08-31T01:50:28;12.70;99.90
18658;DHT22;9458;50.942;5.074;2023-08-31T01:52:57;12.70;99.90
18658;DHT22;9458;50.942;5.074;2023-08-31T01:55:25;12.80;99.90
18658;DHT22;9458;50.942;5.074;2023-08-31T01:57:57;12.70;99.90
18658;DHT22;9458;50.942;5.074;2023-08-31T02:00:24;12.70;99.90
18658;DHT22;9458;50.942;5.074;2023-08-31T02:03:02;12.70;99.90
18658;DHT22;9458;50.942;5.074;2023-08-31T02:05:29;12.70;99.90
18658;DHT22;9458;50.942;5.074;2023-08-31T02:07:57;12.70;99.90
18658;DHT22;9458;50.942;5.074;2023-08-31T02:10:24;12.60;99.90
18658;DHT22;9458;50.942;5.074;2023-08-31T02:12:53;12.50;99.90
18658;DHT22;9458;50.942;5.074;2023-08-31T02:15:22;12.60;99.90
18658;DHT22;9458;50.942;5.074;2023-08-31T02:17:50;12.60;99.90
18658;DHT22;9458;50.942;5.074;2023-08-31T02:20:19;12.60;99.90
18658;DHT22;9458;50.942;5.074;2023-08-31T02:22:47;12.60;99.90
18658;DHT22;9458;50.942;5.074;2023-08-31T02:25:17;12.60;99.90
18658;DHT22;9458;50.942;5.074;2023-08-31T02:27:48;12.60;99.90
18658;DHT22;9458;50.942;5.074;2023-08-31T02:30:16;12.60;99.90
18658;DHT22;9458;50.942;5.074;2023-08-31T02:32:44;12.60;99.90
18658;DHT22;9458;50.942;5.074;2023-08-31T02:35:12;12.50;99.90
18658;DHT22;9458;50.942;5.074;2023-08-31T02:37:40;12.50;99.90
18658;DHT22;9458;50.942;5.074;2023-08-31T02:40:07;12.50;99.90
18658;DHT22;9458;50.942;5.074;2023-08-31T02:42:35;12.50;99.90
18658;DHT22;9458;50.942;5.074;2023-08-31T02:45:03;12.50;99.90
18658;DHT22;9458;50.942;5.074;2023-08-31T02:47:32;12.50;99.90
18658;DHT22;9458;50.942;5.074;2023-08-31T02:50:00;12.40;99.90
18658;DHT22;9458;50.942;5.074;2023-08-31T02:52:29;12.50;99.90
18658;DHT22;9458;50.942;5.074;2023-08-31T02:54:59;12.50;99.90
18658;DHT22;9458;50.942;5.074;2023-08-31T02:57:26;12.50;99.90
18658;DHT22;9458;50.942;5.074;2023-08-31T02:59:54;12.60;99.90
18658;DHT22;9458;50.942;5.074;2023-08-31T03:02:21;12.60;99.90
18658;DHT22;9458;50.942;5.074;2023-08-31T03:04:49;12.70;99.90
18658;DHT22;9458;50.942;5.074;2023-08-31T03:07:18;12.70;99.90
18658;DHT22;9458;50.942;5.074;2023-08-31T03:09:48;12.60;99.90
18658;DHT22;9458;50.942;5.074;2023-08-31T03:12:16;12.50;99.90
18658;DHT22;9458;50.942;5.074;2023-08-31T03:14:43;12.50;99.90
18658;DHT22;9458;50.942;5.074;2023-08-31T03:17:10;12.60;99.90
18658;DHT22;9458;50.942;5.074;2023-08-31T03:19:37;12.50;99.90
18658;DHT22;9458;50.942;5.074;2023-08-31T03:22:07;12.60;99.90
18658;DHT22;9458;50.942;5.074;2023-08-31T03:24:35;12.60;99.90
18658;DHT22;9458;50.942;5.074;2023-08-31T03:27:02;12.70;99.90
18658;DHT22;9458;50.942;5.074;2023-08-31T03:29:30;12.80;99.90
18658;DHT22;9458;50.942;5.074;2023-08-31T03:31:59;12.80;99.90
18658;DHT22;9458;50.942;5.074;2023-08-31T03:34:28;12.80;99.90
18658;DHT22;9458;50.942;5.074;2023-08-31T03:36:55;12.80;99.90
18658;DHT22;9458;50.942;5.074;2023-08-31T03:39:23;12.90;99.90
18658;DHT22;9458;50.942;5.074;2023-08-31T03:41:52;12.80;99.90
18658;DHT22;9458;50.942;5.074;2023-08-31T03:44:20;12.80;99.90
18658;DHT22;9458;50.942;5.074;2023-08-31T03:46:48;12.80;99.90
18658;DHT22;9458;50.942;5.074;2023-08-31T03:49:15;12.90;99.90
18658;DHT22;9458;50.942;5.074;2023-08-31T03:51:42;12.80;99.90
18658;DHT22;9458;50.942;5.074;2023-08-31T03:54:10;12.90;99.90
18658;DHT22;9458;50.942;5.074;2023-08-31T03:56:38;12.90;99.90
18658;DHT22;9458;50.942;5.074;2023-08-31T03:59:07;12.80;99.90
18658;DHT22;9458;50.942;5.074;2023-08-31T04:01:35;12.80;99.90
18658;DHT22;9458;50.942;5.074;2023-08-31T04:04:02;12.80;99.90
18658;DHT22;9458;50.942;5.074;2023-08-31T04:06:30;12.70;99.90
18658;DHT22;9458;50.942;5.074;2023-08-31T04:08:58;12.70;99.90
18658;DHT22;9458;50.942;5.074;2023-08-31T04:11:26;12.70;99.90
18658;DHT22;9458;50.942;5.074;2023-08-31T04:13:53;12.60;99.90
18658;DHT22;9458;50.942;5.074;2023-08-31T04:16:22;12.60;99.90
18658;DHT22;9458;50.942;5.074;2023-08-31T04:18:50;12.60;99.90
18658;DHT22;9458;50.942;5.074;2023-08-31T04:21:17;12.50;99.90
18658;DHT22;9458;50.942;5.074;2023-08-31T04:23:45;12.60;99.90
18658;DHT22;9458;50.942;5.074;2023-08-31T04:26:12;12.60;99.90
18658;DHT22;9458;50.942;5.074;2023-08-31T04:28:40;12.60;99.90
18658;DHT22;9458;50.942;5.074;2023-08-31T04:31:09;12.60;99.90
18658;DHT22;9458;50.942;5.074;2023-08-31T04:33:38;12.60;99.90
18658;DHT22;9458;50.942;5.074;2023-08-31T04:36:06;12.60;99.90
18658;DHT22;9458;50.942;5.074;2023-08-31T04:38:34;12.60;99.90
18658;DHT22;9458;50.942;5.074;2023-08-31T04:41:01;12.60;99.90
18658;DHT22;9458;50.942;5.074;2023-08-31T04:43:29;12.50;99.90
18658;DHT22;9458;50.942;5.074;2023-08-31T04:45:59;12.50;99.90
18658;DHT22;9458;50.942;5.074;2023-08-31T04:48:26;12.60;99.90
18658;DHT22;9458;50.942;5.074;2023-08-31T04:50:57;12.60;99.90
18658;DHT22;9458;50.942;5.074;2023-08-31T04:53:24;12.60;99.90
18658;DHT22;9458;50.942;5.074;2023-08-31T04:55:51;12.60;99.90
18658;DHT22;9458;50.942;5.074;2023-08-31T04:58:18;12.50;99.90
18658;DHT22;9458;50.942;5.074;2023-08-31T05:00:46;12.60;99.90
18658;DHT22;9458;50.942;5.074;2023-08-31T05:03:15;12.60;99.90
18658;DHT22;9458;50.942;5.074;2023-08-31T05:05:42;12.60;99.90
18658;DHT22;9458;50.942;5.074;2023-08-31T05:08:11;12.60;99.90
18658;DHT22;9458;50.942;5.074;2023-08-31T05:10:38;12.90;99.90
18658;DHT22;9458;50.942;5.074;2023-08-31T05:13:05;12.70;99.90
18658;DHT22;9458;50.942;5.074;2023-08-31T05:15:32;12.80;99.90
18658;DHT22;9458;50.942;5.074;2023-08-31T05:17:59;12.80;99.90
18658;DHT22;9458;50.942;5.074;2023-08-31T05:20:27;12.90;99.90
18658;DHT22;9458;50.942;5.074;2023-08-31T05:22:54;12.90;99.90
18658;DHT22;9458;50.942;5.074;2023-08-31T05:25:23;12.90;99.90
18658;DHT22;9458;50.942;5.074;2023-08-31T05:27:50;13.00;99.90
18658;DHT22;9458;50.942;5.074;2023-08-31T05:30:17;12.90;99.90
18658;DHT22;9458;50.942;5.074;2023-08-31T05:32:44;13.60;99.90
18658;DHT22;9458;50.942;5.074;2023-08-31T05:35:11;14.70;99.90
18658;DHT22;9458;50.942;5.074;2023-08-31T05:37:40;15.70;99.90
18658;DHT22;9458;50.942;5.074;2023-08-31T05:40:08;16.50;99.90
18658;DHT22;9458;50.942;5.074;2023-08-31T05:42:38;17.20;99.90
18658;DHT22;9458;50.942;5.074;2023-08-31T05:45:05;17.60;99.90
18658;DHT22;9458;50.942;5.074;2023-08-31T05:47:33;18.00;99.90
18658;DHT22;9458;50.942;5.074;2023-08-31T05:50:00;18.60;99.90
18658;DHT22;9458;50.942;5.074;2023-08-31T05:52:28;19.00;99.90
18658;DHT22;9458;50.942;5.074;2023-08-31T05:54:55;19.30;99.90
18658;DHT22;9458;50.942;5.074;2023-08-31T05:57:23;19.70;99.90
18658;DHT22;9458;50.942;5.074;2023-08-31T05:59:52;20.30;99.90
18658;DHT22;9458;50.942;5.074;2023-08-31T06:02:20;20.80;99.90
18658;DHT22;9458;50.942;5.074;2023-08-31T06:04:50;21.10;99.90
18658;DHT22;9458;50.942;5.074;2023-08-31T06:07:22;21.40;99.90
18658;DHT22;9458;50.942;5.074;2023-08-31T06:09:50;21.60;99.90
18658;DHT22;9458;50.942;5.074;2023-08-31T06:12:24;22.10;99.90
18658;DHT22;9458;50.942;5.074;2023-08-31T06:14:54;22.20;99.90
18658;DHT22;9458;50.942;5.074;2023-08-31T06:17:21;22.60;99.90
18658;DHT22;9458;50.942;5.074;2023-08-31T06:19:48;22.40;99.90
18658;DHT22;9458;50.942;5.074;2023-08-31T06:22:15;22.90;99.90
18658;DHT22;9458;50.942;5.074;2023-08-31T06:24:43;23.30;99.90
18658;DHT22;9458;50.942;5.074;2023-08-31T06:27:11;23.30;99.90
18658;DHT22;9458;50.942;5.074;2023-08-31T06:29:38;23.40;99.90
18658;DHT22;9458;50.942;5.074;2023-08-31T06:32:07;23.40;99.90
18658;DHT22;9458;50.942;5.074;2023-08-31T06:34:34;23.50;99.90
18658;DHT22;9458;50.942;5.074;2023-08-31T06:37:02;24.30;99.90
18658;DHT22;9458;50.942;5.074;2023-08-31T06:39:31;24.70;99.90
18658;DHT22;9458;50.942;5.074;2023-08-31T06:41:58;24.80;99.90
18658;DHT22;9458;50.942;5.074;2023-08-31T06:44:26;24.80;99.90
18658;DHT22;9458;50.942;5.074;2023-08-31T06:46:54;25.30;99.90
18658;DHT22;9458;50.942;5.074;2023-08-31T06:49:23;25.30;99.90
18658;DHT22;9458;50.942;5.074;2023-08-31T06:51:51;24.90;99.90
18658;DHT22;9458;50.942;5.074;2023-08-31T06:54:19;25.50;99.90
18658;DHT22;9458;50.942;5.074;2023-08-31T06:56:46;25.30;99.90
18658;DHT22;9458;50.942;5.074;2023-08-31T06:59:14;25.20;99.90
18658;DHT22;9458;50.942;5.074;2023-08-31T07:01:42;24.90;99.90
18658;DHT22;9458;50.942;5.074;2023-08-31T07:04:09;24.90;99.90
18658;DHT22;9458;50.942;5.074;2023-08-31T07:06:37;25.50;99.90
18658;DHT22;9458;50.942;5.074;2023-08-31T07:09:05;26.00;99.90
18658;DHT22;9458;50.942;5.074;2023-08-31T07:11:33;25.50;99.90
18658;DHT22;9458;50.942;5.074;2023-08-31T07:14:01;25.70;99.90
18658;DHT22;9458;50.942;5.074;2023-08-31T07:16:30;26.30;99.90
18658;DHT22;9458;50.942;5.074;2023-08-31T07:18:57;27.10;99.90
18658;DHT22;9458;50.942;5.074;2023-08-31T07:21:26;27.10;99.90
18658;DHT22;9458;50.942;5.074;2023-08-31T07:23:55;26.80;99.90
18658;DHT22;9458;50.942;5.074;2023-08-31T07:26:23;26.80;99.90
18658;DHT22;9458;50.942;5.074;2023-08-31T07:28:51;26.60;99.90
18658;DHT22;9458;50.942;5.074;2023-08-31T07:31:18;26.90;99.90
18658;DHT22;9458;50.942;5.074;2023-08-31T07:33:47;27.20;99.90
18658;DHT22;9458;50.942;5.074;2023-08-31T07:36:14;27.60;99.90
18658;DHT22;9458;50.942;5.074;2023-08-31T07:38:41;27.50;99.90
18658;DHT22;9458;50.942;5.074;2023-08-31T07:41:11;27.50;99.90
18658;DHT22;9458;50.942;5.074;2023-08-31T07:43:38;27.20;99.90
18658;DHT22;9458;50.942;5.074;2023-08-31T07:46:08;27.90;99.90
18658;DHT22;9458;50.942;5.074;2023-08-31T07:48:35;28.40;99.90
18658;DHT22;9458;50.942;5.074;2023-08-31T07:51:02;28.40;99.90
18658;DHT22;9458;50.942;5.074;2023-08-31T07:53:30;28.70;99.90
18658;DHT22;9458;50.942;5.074;2023-08-31T07:55:57;28.40;99.90
18658;DHT22;9458;50.942;5.074;2023-08-31T07:58:26;28.30;99.90
18658;DHT22;9458;50.942;5.074;2023-08-31T08:00:55;28.10;99.90
18658;DHT22;9458;50.942;5.074;2023-08-31T08:03:22;28.50;99.90
18658;DHT22;9458;50.942;5.074;2023-08-31T08:05:50;29.20;99.90
18658;DHT22;9458;50.942;5.074;2023-08-31T08:08:18;29.40;99.90
18658;DHT22;9458;50.942;5.074;2023-08-31T08:10:45;29.70;99.90
18658;DHT22;9458;50.942;5.074;2023-08-31T08:13:13;29.90;99.90
18658;DHT22;9458;50.942;5.074;2023-08-31T08:15:42;29.40;99.90
18658;DHT22;9458;50.942;5.074;2023-08-31T08:18:10;29.70;99.90
18658;DHT22;9458;50.942;5.074;2023-08-31T08:20:37;29.50;99.90
18658;DHT22;9458;50.942;5.074;2023-08-31T08:23:05;29.10;99.90
18658;DHT22;9458;50.942;5.074;2023-08-31T08:25:33;28.50;99.90
18658;DHT22;9458;50.942;5.074;2023-08-31T08:28:00;28.30;99.90
18658;DHT22;9458;50.942;5.074;2023-08-31T08:30:28;26.80;99.90
18658;DHT22;9458;50.942;5.074;2023-08-31T08:32:57;27.30;99.90
18658;DHT22;9458;50.942;5.074;2023-08-31T08:35:24;27.70;99.90
18658;DHT22;9458;50.942;5.074;2023-08-31T08:37:52;27.80;99.90
18658;DHT22;9458;50.942;5.074;2023-08-31T08:40:20;28.60;99.90
18658;DHT22;9458;50.942;5.074;2023-08-31T08:42:47;29.50;99.90
18658;DHT22;9458;50.942;5.074;2023-08-31T08:45:15;29.70;99.90
18658;DHT22;9458;50.942;5.074;2023-08-31T08:47:43;28.60;99.90
18658;DHT22;9458;50.942;5.074;2023-08-31T08:50:13;28.20;99.90
18658;DHT22;9458;50.942;5.074;2023-08-31T08:52:40;27.80;99.90
18658;DHT22;9458;50.942;5.074;2023-08-31T08:55:08;27.50;99.90
18658;DHT22;9458;50.942;5.074;2023-08-31T08:57:40;27.00;99.90
18658;DHT22;9458;50.942;5.074;2023-08-31T09:00:08;26.90;99.90
18658;DHT22;9458;50.942;5.074;2023-08-31T09:02:41;26.80;99.90
18658;DHT22;9458;50.942;5.074;2023-08-31T09:05:10;26.70;99.90
18658;DHT22;9458;50.942;5.074;2023-08-31T09:07:46;26.60;99.90
18658;DHT22;9458;50.942;5.074;2023-08-31T09:10:32;26.00;99.90
18658;DHT22;9458;50.942;5.074;2023-08-31T09:13:01;25.50;99.90
18658;DHT22;9458;50.942;5.074;2023-08-31T09:15:35;25.80;99.90
18658;DHT22;9458;50.942;5.074;2023-08-31T09:18:03;25.60;99.90
18658;DHT22;9458;50.942;5.074;2023-08-31T09:20:44;25.30;99.90
18658;DHT22;9458;50.942;5.074;2023-08-31T09:23:14;25.30;99.90
18658;DHT22;9458;50.942;5.074;2023-08-31T09:25:41;24.80;99.90
18658;DHT22;9458;50.942;5.074;2023-08-31T09:28:10;24.80;99.90
18658;DHT22;9458;50.942;5.074;2023-08-31T09:30:38;24.70;99.90
18658;DHT22;9458;50.942;5.074;2023-08-31T09:33:06;24.70;99.90
18658;DHT22;9458;50.942;5.074;2023-08-31T09:35:34;24.30;99.90
18658;DHT22;9458;50.942;5.074;2023-08-31T09:38:01;23.80;99.90
18658;DHT22;9458;50.942;5.074;2023-08-31T09:40:30;24.20;99.90
18658;DHT22;9458;50.942;5.074;2023-08-31T09:42:59;24.00;99.90
18658;DHT22;9458;50.942;5.074;2023-08-31T09:45:28;24.20;99.90
18658;DHT22;9458;50.942;5.074;2023-08-31T09:47:57;24.50;99.90
18658;DHT22;9458;50.942;5.074;2023-08-31T09:50:25;24.60;99.90
18658;DHT22;9458;50.942;5.074;2023-08-31T09:52:53;24.80;99.90
18658;DHT22;9458;50.942;5.074;2023-08-31T09:55:23;24.50;99.90
18658;DHT22;9458;50.942;5.074;2023-08-31T09:57:53;24.50;99.90
18658;DHT22;9458;50.942;5.074;2023-08-31T10:00:22;24.60;99.90
18658;DHT22;9458;50.942;5.074;2023-08-31T10:02:54;24.40;99.90
18658;DHT22;9458;50.942;5.074;2023-08-31T10:05:31;24.20;99.90
18658;DHT22;9458;50.942;5.074;2023-08-31T10:08:03;24.30;99.90
18658;DHT22;9458;50.942;5.074;2023-08-31T10:10:30;24.40;99.90
18658;DHT22;9458;50.942;5.074;2023-08-31T10:13:00;24.50;99.90
18658;DHT22;9458;50.942;5.074;2023-08-31T10:15:31;24.00;99.90
18658;DHT22;9458;50.942;5.074;2023-08-31T10:17:59;23.60;99.90
18658;DHT22;9458;50.942;5.074;2023-08-31T10:20:28;24.10;99.90
18658;DHT22;9458;50.942;5.074;2023-08-31T10:22:57;23.90;99.90
18658;DHT22;9458;50.942;5.074;2023-08-31T10:25:25;23.20;99.90
18658;DHT22;9458;50.942;5.074;2023-08-31T10:28:18;23.70;99.90
18658;DHT22;9458;50.942;5.074;2023-08-31T10:30:59;23.20;99.90
18658;DHT22;9458;50.942;5.074;2023-08-31T10:33:27;23.30;99.90
18658;DHT22;9458;50.942;5.074;2023-08-31T10:35:55;23.60;99.90
18658;DHT22;9458;50.942;5.074;2023-08-31T10:38:23;23.80;99.90
18658;DHT22;9458;50.942;5.074;2023-08-31T10:41:17;23.60;99.90
18658;DHT22;9458;50.942;5.074;2023-08-31T10:43:50;23.80;99.90
18658;DHT22;9458;50.942;5.074;2023-08-31T10:46:24;23.20;99.90
18658;DHT22;9458;50.942;5.074;2023-08-31T10:48:53;23.70;99.90
18658;DHT22;9458;50.942;5.074;2023-08-31T10:51:24;23.60;99.90
18658;DHT22;9458;50.942;5.074;2023-08-31T10:53:52;23.40;99.90
18658;DHT22;9458;50.942;5.074;2023-08-31T10:56:19;23.70;99.90
18658;DHT22;9458;50.942;5.074;2023-08-31T10:58:56;23.50;99.90
18658;DHT22;9458;50.942;5.074;2023-08-31T11:04:23;23.20;99.90
18658;DHT22;9458;50.942;5.074;2023-08-31T11:09:33;23.80;99.90
18658;DHT22;9458;50.942;5.074;2023-08-31T11:12:00;23.70;99.90
18658;DHT22;9458;50.942;5.074;2023-08-31T11:14:29;23.80;99.90
18658;DHT22;9458;50.942;5.074;2023-08-31T11:16:57;23.60;99.90
18658;DHT22;9458;50.942;5.074;2023-08-31T11:19:25;23.70;99.90
18658;DHT22;9458;50.942;5.074;2023-08-31T11:21:52;23.20;99.90
18658;DHT22;9458;50.942;5.074;2023-08-31T11:24:20;23.50;99.90
18658;DHT22;9458;50.942;5.074;2023-08-31T11:26:48;24.00;99.90
18658;DHT22;9458;50.942;5.074;2023-08-31T11:29:15;23.50;99.90
18658;DHT22;9458;50.942;5.074;2023-08-31T11:31:43;23.40;99.90
18658;DHT22;9458;50.942;5.074;2023-08-31T11:34:11;23.60;99.90
18658;DHT22;9458;50.942;5.074;2023-08-31T11:36:39;23.70;99.90
18658;DHT22;9458;50.942;5.074;2023-08-31T11:39:07;23.60;99.90
18658;DHT22;9458;50.942;5.074;2023-08-31T11:41:34;24.00;99.90
18658;DHT22;9458;50.942;5.074;2023-08-31T11:44:03;23.90;99.90
18658;DHT22;9458;50.942;5.074;2023-08-31T11:46:31;24.00;99.90
18658;DHT22;9458;50.942;5.074;2023-08-31T11:49:00;24.00;99.90
18658;DHT22;9458;50.942;5.074;2023-08-31T11:51:30;24.10;99.90
18658;DHT22;9458;50.942;5.074;2023-08-31T11:53:57;23.90;99.90
18658;DHT22;9458;50.942;5.074;2023-08-31T11:56:25;23.80;99.90
18658;DHT22;9458;50.942;5.074;2023-08-31T11:58:53;23.60;99.90
18658;DHT22;9458;50.942;5.074;2023-08-31T12:01:22;23.60;99.90
18658;DHT22;9458;50.942;5.074;2023-08-31T12:03:50;23.70;99.90
18658;DHT22;9458;50.942;5.074;2023-08-31T12:06:19;23.90;99.90
18658;DHT22;9458;50.942;5.074;2023-08-31T12:08:47;23.80;99.90
18658;DHT22;9458;50.942;5.074;2023-08-31T12:11:14;23.60;99.90
18658;DHT22;9458;50.942;5.074;2023-08-31T12:13:42;23.40;99.90
18658;DHT22;9458;50.942;5.074;2023-08-31T12:16:12;23.50;99.90
18658;DHT22;9458;50.942;5.074;2023-08-31T12:18:39;23.00;99.90
18658;DHT22;9458;50.942;5.074;2023-08-31T12:21:08;23.10;99.90
18658;DHT22;9458;50.942;5.074;2023-08-31T12:23:36;23.30;99.90
18658;DHT22;9458;50.942;5.074;2023-08-31T12:26:05;23.20;99.90
18658;DHT22;9458;50.942;5.074;2023-08-31T12:28:33;23.20;99.90
18658;DHT22;9458;50.942;5.074;2023-08-31T12:31:00;23.10;99.90
18658;DHT22;9458;50.942;5.074;2023-08-31T12:33:30;22.60;99.90
18658;DHT22;9458;50.942;5.074;2023-08-31T12:35:58;22.40;99.90
18658;DHT22;9458;50.942;5.074;2023-08-31T12:38:26;22.20;99.90
18658;DHT22;9458;50.942;5.074;2023-08-31T12:40:55;22.40;99.90
18658;DHT22;9458;50.942;5.074;2023-08-31T12:43:23;22.50;99.90
18658;DHT22;9458;50.942;5.074;2023-08-31T12:45:50;22.50;99.90
18658;DHT22;9458;50.942;5.074;2023-08-31T12:48:17;22.70;99.90
18658;DHT22;9458;50.942;5.074;2023-08-31T12:50:44;22.70;99.90
18658;DHT22;9458;50.942;5.074;2023-08-31T12:53:11;22.90;99.90
18658;DHT22;9458;50.942;5.074;2023-08-31T12:55:38;22.70;99.90
18658;DHT22;9458;50.942;5.074;2023-08-31T12:58:06;22.30;99.90
18658;DHT22;9458;50.942;5.074;2023-08-31T13:00:34;22.20;99.90
18658;DHT22;9458;50.942;5.074;2023-08-31T13:03:02;22.00;99.90
18658;DHT22;9458;50.942;5.074;2023-08-31T13:05:29;22.10;99.90
18658;DHT22;9458;50.942;5.074;2023-08-31T13:07:56;22.00;99.90
18658;DHT22;9458;50.942;5.074;2023-08-31T13:10:24;22.00;99.90
18658;DHT22;9458;50.942;5.074;2023-08-31T13:12:51;21.80;99.90
18658;DHT22;9458;50.942;5.074;2023-08-31T13:15:20;21.50;99.90
18658;DHT22;9458;50.942;5.074;2023-08-31T13:17:47;21.60;99.90
18658;DHT22;9458;50.942;5.074;2023-08-31T13:20:14;21.80;99.90
18658;DHT22;9458;50.942;5.074;2023-08-31T13:22:42;21.70;99.90
18658;DHT22;9458;50.942;5.074;2023-08-31T13:25:09;21.90;99.90
18658;DHT22;9458;50.942;5.074;2023-08-31T13:27:37;21.80;99.90
18658;DHT22;9458;50.942;5.074;2023-08-31T13:30:05;21.70;99.90
18658;DHT22;9458;50.942;5.074;2023-08-31T13:32:34;21.90;99.90
18658;DHT22;9458;50.942;5.074;2023-08-31T13:35:01;21.90;99.90
18658;DHT22;9458;50.942;5.074;2023-08-31T13:37:33;22.10;99.90
18658;DHT22;9458;50.942;5.074;2023-08-31T13:40:00;22.00;99.90
18658;DHT22;9458;50.942;5.074;2023-08-31T13:42:32;21.60;99.90
18658;DHT22;9458;50.942;5.074;2023-08-31T13:45:00;21.70;99.90
18658;DHT22;9458;50.942;5.074;2023-08-31T13:47:29;21.80;99.90
18658;DHT22;9458;50.942;5.074;2023-08-31T13:49:57;21.70;99.90
18658;DHT22;9458;50.942;5.074;2023-08-31T13:52:25;21.80;99.90
18658;DHT22;9458;50.942;5.074;2023-08-31T13:54:52;22.00;99.90
18658;DHT22;9458;50.942;5.074;2023-08-31T13:57:19;21.80;99.90
18658;DHT22;9458;50.942;5.074;2023-08-31T13:59:47;21.70;99.90
18658;DHT22;9458;50.942;5.074;2023-08-31T14:02:14;21.70;99.90
18658;DHT22;9458;50.942;5.074;2023-08-31T14:04:42;22.00;99.90
18658;DHT22;9458;50.942;5.074;2023-08-31T14:07:21;22.10;99.90
18658;DHT22;9458;50.942;5.074;2023-08-31T14:09:49;21.90;99.90
18658;DHT22;9458;50.942;5.074;2023-08-31T14:12:17;22.10;99.90
18658;DHT22;9458;50.942;5.074;2023-08-31T14:14:45;22.10;99.90
18658;DHT22;9458;50.942;5.074;2023-08-31T14:17:12;22.10;99.90
18658;DHT22;9458;50.942;5.074;2023-08-31T14:19:40;22.10;99.90
18658;DHT22;9458;50.942;5.074;2023-08-31T14:22:07;22.10;99.90
18658;DHT22;9458;50.942;5.074;2023-08-31T14:24:37;22.10;99.90
18658;DHT22;9458;50.942;5.074;2023-08-31T14:27:04;22.20;99.90
18658;DHT22;9458;50.942;5.074;2023-08-31T14:29:31;22.10;99.90
18658;DHT22;9458;50.942;5.074;2023-08-31T14:32:00;22.30;99.90
18658;DHT22;9458;50.942;5.074;2023-08-31T14:34:28;22.30;99.90
18658;DHT22;9458;50.942;5.074;2023-08-31T14:36:58;22.00;99.90
18658;DHT22;9458;50.942;5.074;2023-08-31T14:39:26;21.90;99.90
18658;DHT22;9458;50.942;5.074;2023-08-31T14:41:56;22.00;99.90
18658;DHT22;9458;50.942;5.074;2023-08-31T14:44:24;22.00;99.90
18658;DHT22;9458;50.942;5.074;2023-08-31T14:46:51;21.90;99.90
18658;DHT22;9458;50.942;5.074;2023-08-31T14:49:21;22.10;99.90
18658;DHT22;9458;50.942;5.074;2023-08-31T14:51:50;21.90;99.90
18658;DHT22;9458;50.942;5.074;2023-08-31T14:54:17;22.00;99.90
18658;DHT22;9458;50.942;5.074;2023-08-31T14:56:45;21.70;99.90
18658;DHT22;9458;50.942;5.074;2023-08-31T14:59:14;21.70;99.90
18658;DHT22;9458;50.942;5.074;2023-08-31T15:01:42;22.00;99.90
18658;DHT22;9458;50.942;5.074;2023-08-31T15:04:10;22.00;99.90
18658;DHT22;9458;50.942;5.074;2023-08-31T15:06:37;22.00;99.90
18658;DHT22;9458;50.942;5.074;2023-08-31T15:09:04;22.10;99.90
18658;DHT22;9458;50.942;5.074;2023-08-31T15:11:32;22.20;99.90
18658;DHT22;9458;50.942;5.074;2023-08-31T15:14:01;22.00;99.90
18658;DHT22;9458;50.942;5.074;2023-08-31T15:16:30;22.00;99.90
18658;DHT22;9458;50.942;5.074;2023-08-31T15:18:59;21.70;99.90
18658;DHT22;9458;50.942;5.074;2023-08-31T15:21:26;21.90;99.90
18658;DHT22;9458;50.942;5.074;2023-08-31T15:23:53;21.90;99.90
18658;DHT22;9458;50.942;5.074;2023-08-31T15:26:21;22.00;99.90
18658;DHT22;9458;50.942;5.074;2023-08-31T15:28:49;22.10;99.90
18658;DHT22;9458;50.942;5.074;2023-08-31T15:31:17;21.60;99.90
18658;DHT22;9458;50.942;5.074;2023-08-31T15:33:46;21.60;99.90
18658;DHT22;9458;50.942;5.074;2023-08-31T15:36:14;21.50;99.90
18658;DHT22;9458;50.942;5.074;2023-08-31T15:38:42;21.40;99.90
18658;DHT22;9458;50.942;5.074;2023-08-31T15:41:09;21.50;99.90
18658;DHT22;9458;50.942;5.074;2023-08-31T15:43:36;21.30;99.90
18658;DHT22;9458;50.942;5.074;2023-08-31T15:46:05;21.30;99.90
18658;DHT22;9458;50.942;5.074;2023-08-31T15:48:32;21.20;99.90
18658;DHT22;9458;50.942;5.074;2023-08-31T15:51:01;21.50;99.90
18658;DHT22;9458;50.942;5.074;2023-08-31T15:53:29;21.30;99.90
18658;DHT22;9458;50.942;5.074;2023-08-31T15:55:56;21.20;99.90
18658;DHT22;9458;50.942;5.074;2023-08-31T15:58:24;21.00;99.90
18658;DHT22;9458;50.942;5.074;2023-08-31T16:00:52;21.00;99.90